Time;durP1;ratioP1;P1;durP2;ratioP2;P2;SDS_P1;SDS_P2;PMS_P1;PMS_P2;Temp;Humidity;BMP_temperature;BMP_pressure;BME280_temperature;BME280_humidity;BME280_pressure;Samples;Min_cycle;Max_cycle;Signal;HPM_P1;HPM_P2
2023/01/29 00:01:08;;;;;;;1.10;1.10;;;15.30;64.20;;;;;;5065341;28;43487;-70
2023/01/29 00:03:36;;;;;;;0.97;0.97;;;15.30;64.00;;;;;;5066302;28;43744;-71
2023/01/29 00:06:06;;;;;;;1.00;1.00;;;15.50;63.70;;;;;;5067956;28;43426;-70
2023/01/29 00:08:34;;;;;;;1.00;1.00;;;15.50;63.20;;;;;;5065866;28;43488;-71
2023/01/29 00:11:02;;;;;;;0.97;0.97;;;15.50;63.00;;;;;;5068735;28;43469;-71
2023/01/29 00:13:30;;;;;;;0.90;0.90;;;15.50;63.10;;;;;;5067876;28;43939;-71
2023/01/29 00:15:58;;;;;;;1.00;1.00;;;15.50;63.30;;;;;;5068274;28;43481;-71
2023/01/29 00:18:27;;;;;;;1.10;1.10;;;15.40;63.60;;;;;;5066757;28;44101;-71
2023/01/29 00:20:55;;;;;;;0.90;0.90;;;15.40;63.50;;;;;;5068387;28;43475;-69
2023/01/29 00:23:25;;;;;;;0.90;0.90;;;15.40;63.50;;;;;;5068027;28;44151;-70
2023/01/29 00:25:53;;;;;;;1.13;1.13;;;15.40;63.50;;;;;;5068110;28;45448;-71
2023/01/29 00:28:21;;;;;;;1.20;1.20;;;15.40;63.60;;;;;;5083926;28;43732;-71
2023/01/29 00:30:50;;;;;;;1.07;1.07;;;15.30;63.50;;;;;;5069203;28;43521;-70
2023/01/29 00:33:17;;;;;;;1.00;1.00;;;15.30;63.70;;;;;;5066447;28;43958;-71
2023/01/29 00:35:45;;;;;;;1.00;1.00;;;15.30;63.80;;;;;;5063453;28;44425;-71
2023/01/29 00:38:14;;;;;;;1.00;1.00;;;15.30;63.90;;;;;;5066748;28;43426;-73
2023/01/29 00:46:14;;;;;;;1.10;1.10;;;15.30;63.70;;;;;;5061577;28;45340;-70
2023/01/29 00:48:42;;;;;;;1.10;1.10;;;15.30;63.80;;;;;;5066786;28;43434;-71
2023/01/29 00:51:10;;;;;;;0.90;0.90;;;15.30;63.90;;;;;;5066564;28;43934;-70
2023/01/29 00:53:37;;;;;;;1.03;1.03;;;15.20;63.80;;;;;;5066386;28;46123;-71
2023/01/29 00:56:07;;;;;;;1.00;1.00;;;15.20;64.10;;;;;;5066167;28;44936;-70
2023/01/29 00:58:35;;;;;;;0.90;0.90;;;15.30;64.00;;;;;;5068255;28;43443;-70
2023/01/29 01:01:03;;;;;;;1.10;1.10;;;15.50;63.70;;;;;;5066637;28;43536;-71
2023/01/29 01:03:32;;;;;;;0.90;0.90;;;15.50;63.20;;;;;;5062763;28;43864;-70
2023/01/29 01:06:04;;;;;;;0.97;0.97;;;15.50;63.00;;;;;;5067506;28;44029;-71
2023/01/29 01:11:18;;;;;;;0.90;0.90;;;15.50;63.20;;;;;;5068464;28;43419;-71
2023/01/29 01:13:46;;;;;;;0.90;0.90;;;15.40;63.50;;;;;;5066880;28;44103;-70
2023/01/29 01:16:15;;;;;;;1.07;1.07;;;15.40;63.50;;;;;;5067572;28;43487;-70
2023/01/29 01:18:43;;;;;;;0.97;0.97;;;15.40;63.40;;;;;;5066376;28;43340;-71
2023/01/29 01:21:11;;;;;;;1.00;1.00;;;15.40;63.50;;;;;;5066188;28;43925;-71
2023/01/29 01:23:39;;;;;;;1.20;1.20;;;15.30;63.50;;;;;;5067484;28;43542;-72
2023/01/29 01:26:10;;;;;;;0.90;0.90;;;15.30;63.50;;;;;;5066107;28;43522;-71
2023/01/29 01:28:39;;;;;;;1.00;1.00;;;15.30;63.60;;;;;;5067237;28;43438;-70
2023/01/29 01:31:09;;;;;;;1.10;1.10;;;15.30;63.80;;;;;;5068022;28;43956;-70
2023/01/29 01:33:37;;;;;;;1.10;1.10;;;15.30;63.90;;;;;;5067792;28;44099;-70
2023/01/29 01:36:08;;;;;;;1.00;1.00;;;15.30;63.70;;;;;;5065433;28;44809;-72
2023/01/29 01:38:43;;;;;;;1.00;1.00;;;15.30;63.70;;;;;;5066144;28;44090;-71
2023/01/29 01:41:12;;;;;;;0.93;0.93;;;15.30;63.70;;;;;;5061762;28;43469;-70
2023/01/29 01:43:52;;;;;;;1.00;1.00;;;15.30;63.80;;;;;;5065797;28;45814;-71
2023/01/29 01:46:20;;;;;;;0.97;0.97;;;15.20;63.80;;;;;;5067558;28;43400;-71
2023/01/29 01:48:51;;;;;;;1.10;1.10;;;15.20;63.80;;;;;;5082644;28;43437;-71
2023/01/29 01:51:19;;;;;;;0.97;0.97;;;15.20;64.10;;;;;;5067817;28;43394;-70
2023/01/29 01:53:51;;;;;;;1.00;1.00;;;15.30;64.00;;;;;;5066883;28;43903;-70
2023/01/29 01:56:21;;;;;;;1.00;1.00;;;15.40;63.70;;;;;;5069265;28;43417;-70
2023/01/29 01:58:51;;;;;;;1.10;1.10;;;15.50;63.20;;;;;;5067901;28;43973;-71
2023/01/29 02:01:26;;;;;;;0.97;0.97;;;15.50;63.10;;;;;;5066284;28;43455;-77
2023/01/29 02:09:31;;;;;;;1.00;1.00;;;15.30;63.60;;;;;;5066874;28;43430;-77
2023/01/29 02:11:59;;;;;;;1.03;1.03;;;15.40;63.60;;;;;;5067290;28;43452;-77
2023/01/29 02:14:29;;;;;;;1.00;1.00;;;15.40;63.60;;;;;;5064977;28;45646;-74
2023/01/29 02:16:57;;;;;;;0.90;0.90;;;15.30;63.60;;;;;;5067080;28;43466;-76
2023/01/29 02:19:32;;;;;;;1.00;1.00;;;15.30;63.70;;;;;;5068309;28;43857;-73
2023/01/29 02:22:09;;;;;;;1.10;1.10;;;15.20;63.70;;;;;;5065208;28;43505;-76
2023/01/29 02:25:08;;;;;;;0.87;0.87;;;15.20;63.80;;;;;;5063567;28;45935;-76
2023/01/29 02:28:13;;;;;;;0.80;0.80;;;15.20;64.10;;;;;;5061740;28;44280;-75
2023/01/29 02:30:42;;;;;;;0.90;0.90;;;15.20;63.80;;;;;;5061456;28;43834;-77
2023/01/29 02:33:14;;;;;;;1.00;1.00;;;15.20;63.80;;;;;;5066094;28;43299;-76
2023/01/29 02:35:43;;;;;;;1.03;1.03;;;15.20;63.80;;;;;;5061645;28;44024;-75
2023/01/29 02:38:16;;;;;;;1.07;1.07;;;15.20;63.80;;;;;;5064677;28;44682;-77
2023/01/29 02:40:45;;;;;;;0.90;0.90;;;15.20;63.80;;;;;;5065009;28;43933;-77
2023/01/29 02:43:24;;;;;;;1.00;1.00;;;15.20;63.80;;;;;;5064609;28;43461;-75
2023/01/29 02:45:54;;;;;;;1.03;1.03;;;15.20;64.10;;;;;;5066048;28;43787;-77
2023/01/29 02:48:22;;;;;;;1.00;1.00;;;15.30;64.00;;;;;;5066074;28;43607;-75
2023/01/29 02:50:54;;;;;;;0.80;0.80;;;15.40;63.70;;;;;;5066340;28;43513;-76
2023/01/29 02:53:23;;;;;;;1.00;1.00;;;15.50;63.20;;;;;;5069287;28;43502;-75
2023/01/29 02:55:53;;;;;;;1.00;1.00;;;15.50;63.00;;;;;;5065875;28;44643;-74
2023/01/29 02:58:25;;;;;;;0.93;0.93;;;15.50;63.10;;;;;;5064702;28;44713;-74
2023/01/29 03:00:53;;;;;;;1.10;1.10;;;15.40;63.20;;;;;;5066330;28;44002;-76
2023/01/29 03:03:22;;;;;;;1.03;1.03;;;15.40;63.50;;;;;;5064918;28;43452;-76
2023/01/29 03:05:55;;;;;;;0.97;0.97;;;15.40;63.60;;;;;;5057860;28;45629;-75
2023/01/29 03:08:35;;;;;;;1.07;1.07;;;15.30;63.40;;;;;;5065902;28;43391;-74
2023/01/29 03:11:05;;;;;;;0.90;0.90;;;15.30;63.40;;;;;;5065896;28;43872;-76
2023/01/29 03:13:39;;;;;;;0.90;0.90;;;15.30;63.50;;;;;;5064851;28;43521;-75
2023/01/29 03:16:09;;;;;;;1.00;1.00;;;15.30;63.50;;;;;;5064333;28;45349;-76
2023/01/29 03:18:45;;;;;;;0.90;0.90;;;15.30;63.60;;;;;;5064261;28;43323;-77
2023/01/29 03:32:22;;;;;;;1.10;1.10;;;15.30;63.70;;;;;;5064396;28;43582;-76
2023/01/29 03:34:54;;;;;;;1.00;1.00;;;15.20;64.40;;;;;;5063026;28;43575;-76
2023/01/29 03:37:26;;;;;;;0.90;0.90;;;15.20;63.70;;;;;;5067776;28;45801;-77
2023/01/29 03:39:55;;;;;;;1.10;1.10;;;15.20;64.10;;;;;;5067467;28;43415;-74
2023/01/29 03:42:25;;;;;;;1.20;1.20;;;15.30;64.00;;;;;;5067714;28;43781;-74
2023/01/29 03:44:59;;;;;;;1.00;1.00;;;15.40;63.60;;;;;;5067229;28;43655;-75
2023/01/29 03:47:35;;;;;;;1.10;1.10;;;15.50;63.20;;;;;;5067220;28;44041;-77
2023/01/29 03:50:04;;;;;;;1.00;1.00;;;15.50;62.90;;;;;;5070440;28;43662;-75
2023/01/29 03:52:36;;;;;;;1.10;1.10;;;15.50;63.00;;;;;;5067378;28;43395;-76
2023/01/29 03:55:10;;;;;;;1.00;1.00;;;15.40;63.00;;;;;;5067667;28;43597;-78
2023/01/29 03:57:39;;;;;;;0.80;0.80;;;15.40;63.40;;;;;;5067160;28;45504;-77
2023/01/29 04:00:14;;;;;;;1.03;1.03;;;15.40;63.50;;;;;;5067174;28;43445;-77
2023/01/29 04:03:03;;;;;;;0.90;0.90;;;15.30;63.20;;;;;;5066950;28;43956;-75
2023/01/29 04:05:36;;;;;;;1.00;1.00;;;15.30;63.30;;;;;;5067537;28;43523;-76
2023/01/29 04:08:14;;;;;;;1.00;1.00;;;15.30;63.50;;;;;;5066985;28;45727;-75
2023/01/29 04:10:43;;;;;;;1.20;1.20;;;15.30;63.50;;;;;;5066833;28;43439;-75
2023/01/29 04:13:12;;;;;;;1.07;1.07;;;15.30;63.60;;;;;;5067099;28;43410;-75
2023/01/29 04:15:45;;;;;;;0.90;0.90;;;15.20;63.80;;;;;;5067275;28;43510;-76
2023/01/29 04:18:13;;;;;;;1.00;1.00;;;15.20;63.70;;;;;;5060999;28;45746;-74
2023/01/29 04:21:13;;;;;;;1.10;1.10;;;15.20;63.60;;;;;;5061116;28;44023;-77
2023/01/29 04:23:42;;;;;;;0.97;0.97;;;15.20;63.60;;;;;;5066752;28;43463;-76
2023/01/29 04:26:25;;;;;;;1.10;1.10;;;15.20;63.70;;;;;;5067298;28;43396;-73
2023/01/29 04:28:59;;;;;;;0.93;0.93;;;15.20;63.80;;;;;;5066746;28;44063;-76
2023/01/29 04:31:31;;;;;;;1.07;1.07;;;15.20;63.80;;;;;;5060972;28;44048;-75
2023/01/29 04:34:05;;;;;;;0.80;0.80;;;15.10;64.00;;;;;;5063184;28;43392;-75
2023/01/29 04:36:36;;;;;;;1.00;1.00;;;15.20;64.10;;;;;;5068286;28;43472;-76
2023/01/29 04:39:10;;;;;;;1.03;1.03;;;15.30;63.80;;;;;;5067604;28;43909;-76
2023/01/29 04:41:42;;;;;;;1.00;1.00;;;15.30;63.40;;;;;;5067680;28;43470;-76
2023/01/29 04:44:14;;;;;;;1.10;1.10;;;15.40;63.20;;;;;;5068163;28;43452;-76
2023/01/29 04:46:47;;;;;;;0.93;0.93;;;15.40;63.20;;;;;;5066741;28;43503;-74
2023/01/29 04:49:18;;;;;;;1.07;1.07;;;15.30;63.20;;;;;;5067610;28;43960;-75
2023/01/29 04:51:51;;;;;;;0.90;0.90;;;15.30;63.30;;;;;;5067317;28;43403;-77
2023/01/29 04:54:24;;;;;;;1.20;1.20;;;15.30;63.60;;;;;;5066685;28;43960;-75
2023/01/29 04:56:55;;;;;;;1.00;1.00;;;15.30;63.40;;;;;;5060744;28;43523;-75
2023/01/29 04:59:25;;;;;;;0.93;0.93;;;15.30;63.40;;;;;;5068163;28;43732;-76
2023/01/29 05:01:54;;;;;;;1.00;1.00;;;15.30;63.40;;;;;;5066382;28;43956;-76
2023/01/29 05:04:22;;;;;;;1.10;1.10;;;15.30;63.40;;;;;;5067873;28;43993;-76
2023/01/29 05:06:50;;;;;;;0.90;0.90;;;15.30;63.40;;;;;;5066550;28;43530;-77
2023/01/29 05:09:18;;;;;;;1.10;1.10;;;15.30;63.50;;;;;;5060557;28;45324;-76
2023/01/29 05:11:46;;;;;;;0.90;0.90;;;15.30;63.70;;;;;;5067546;28;44051;-75
2023/01/29 05:14:14;;;;;;;0.90;0.90;;;15.30;63.70;;;;;;5066227;28;43449;-75
2023/01/29 05:16:43;;;;;;;1.00;1.00;;;15.40;63.50;;;;;;5068079;28;43395;-77
2023/01/29 05:19:13;;;;;;;0.87;0.87;;;15.50;63.00;;;;;;5067134;28;44029;-74
2023/01/29 05:21:43;;;;;;;1.00;1.00;;;15.50;62.80;;;;;;5067566;28;43474;-76
2023/01/29 05:24:12;;;;;;;1.00;1.00;;;15.50;62.80;;;;;;5065744;28;43450;-76
2023/01/29 05:29:25;;;;;;;1.00;1.00;;;15.40;63.00;;;;;;5067186;28;43779;-76
2023/01/29 05:31:53;;;;;;;0.90;0.90;;;15.40;63.40;;;;;;5067344;28;43401;-76
2023/01/29 05:34:22;;;;;;;0.97;0.97;;;15.40;63.10;;;;;;5066562;28;43402;-76
2023/01/29 05:36:50;;;;;;;0.97;0.97;;;15.40;63.20;;;;;;5068355;28;43838;-74
2023/01/29 05:39:18;;;;;;;0.83;0.83;;;15.40;63.20;;;;;;5066626;28;43879;-76
2023/01/29 05:41:46;;;;;;;0.80;0.80;;;15.30;63.10;;;;;;5071358;28;43506;-76
2023/01/29 05:44:14;;;;;;;0.87;0.87;;;15.30;63.70;;;;;;5066997;28;43364;-76
2023/01/29 05:46:42;;;;;;;0.87;0.87;;;15.30;63.40;;;;;;5067235;28;43518;-75
2023/01/29 05:49:10;;;;;;;0.90;0.90;;;15.30;63.50;;;;;;5066610;28;43611;-75
2023/01/29 05:51:39;;;;;;;1.00;1.00;;;15.30;63.70;;;;;;5067077;28;43523;-76
2023/01/29 05:54:07;;;;;;;0.90;0.90;;;15.40;63.50;;;;;;5067331;28;43356;-77
2023/01/29 05:56:35;;;;;;;0.90;0.90;;;15.40;63.00;;;;;;5065771;28;43964;-75
2023/01/29 05:59:03;;;;;;;1.10;1.10;;;15.40;62.90;;;;;;5066802;28;43780;-75
2023/01/29 06:01:31;;;;;;;1.00;1.00;;;15.40;63.00;;;;;;5066448;28;43989;-76
2023/01/29 06:03:59;;;;;;;0.93;0.93;;;15.40;63.10;;;;;;5066792;28;44448;-76
2023/01/29 06:06:27;;;;;;;0.93;0.93;;;15.30;63.10;;;;;;5066992;28;43393;-76
2023/01/29 06:08:57;;;;;;;1.10;1.10;;;15.30;63.50;;;;;;5066930;28;43610;-77
2023/01/29 06:11:25;;;;;;;1.00;1.00;;;15.30;63.30;;;;;;5064996;28;44226;-75
2023/01/29 06:13:53;;;;;;;1.10;1.10;;;15.30;63.30;;;;;;5065555;28;43403;-77
2023/01/29 06:16:21;;;;;;;1.00;1.00;;;15.30;63.30;;;;;;5066800;28;43570;-77
2023/01/29 06:18:49;;;;;;;1.10;1.10;;;15.30;63.30;;;;;;5065033;28;45670;-76
2023/01/29 06:21:17;;;;;;;1.07;1.07;;;15.20;63.30;;;;;;5066414;28;43452;-76
2023/01/29 06:23:47;;;;;;;0.97;0.97;;;15.30;63.50;;;;;;5064750;28;43910;-75
2023/01/29 06:26:17;;;;;;;1.00;1.00;;;15.20;63.40;;;;;;5066336;28;44019;-76
2023/01/29 06:28:47;;;;;;;0.73;0.73;;;15.30;63.60;;;;;;5064982;28;45508;-75
2023/01/29 06:31:15;;;;;;;0.97;0.97;;;15.30;63.60;;;;;;5064604;28;45050;-76
2023/01/29 06:34:03;;;;;;;1.07;1.07;;;15.30;63.50;;;;;;5065395;28;43411;-76
2023/01/29 06:36:31;;;;;;;0.90;0.90;;;15.30;63.40;;;;;;5065053;28;43600;-77
2023/01/29 06:38:59;;;;;;;0.90;0.90;;;15.30;63.30;;;;;;5066180;28;43747;-77
2023/01/29 06:41:28;;;;;;;1.00;1.00;;;15.20;63.30;;;;;;5064376;28;44764;-75
2023/01/29 06:43:56;;;;;;;1.00;1.00;;;15.20;63.40;;;;;;5064485;28;43496;-76
2023/01/29 06:46:24;;;;;;;1.00;1.00;;;15.30;63.70;;;;;;5066665;28;43534;-70
2023/01/29 06:48:52;;;;;;;0.97;0.97;;;15.30;63.50;;;;;;5066304;28;43954;-75
2023/01/29 06:51:21;;;;;;;1.00;1.00;;;15.50;63.30;;;;;;5065986;28;43443;-76
2023/01/29 06:53:49;;;;;;;1.00;1.00;;;15.60;62.80;;;;;;5063306;28;43970;-76
2023/01/29 06:56:17;;;;;;;0.90;0.90;;;15.60;62.40;;;;;;5063204;28;43998;-75
2023/01/29 06:58:46;;;;;;;1.00;1.00;;;15.60;62.40;;;;;;5060962;28;46693;-75
2023/01/29 07:01:14;;;;;;;0.90;0.90;;;15.50;62.40;;;;;;5063049;28;44170;-75
2023/01/29 07:04:01;;;;;;;1.00;1.00;;;15.50;62.60;;;;;;5064924;28;43418;-75
2023/01/29 07:06:29;;;;;;;1.10;1.10;;;15.50;62.90;;;;;;5063335;28;43434;-75
2023/01/29 07:08:57;;;;;;;1.00;1.00;;;15.40;62.70;;;;;;5086515;27;46075;-76
2023/01/29 07:11:25;;;;;;;1.00;1.00;;;15.40;62.80;;;;;;5090245;27;44879;-74
2023/01/29 07:13:55;;;;;;;1.00;1.00;;;15.40;62.90;;;;;;5067140;28;43521;-76
2023/01/29 07:16:23;;;;;;;1.00;1.00;;;15.30;62.90;;;;;;5064400;28;43495;-76
2023/01/29 07:18:51;;;;;;;0.93;0.93;;;15.30;63.00;;;;;;5068173;28;45514;-76
2023/01/29 07:21:19;;;;;;;1.20;1.20;;;15.30;63.20;;;;;;5069524;28;43432;-76
2023/01/29 07:23:47;;;;;;;1.20;1.20;;;15.30;63.60;;;;;;5069148;28;43432;-76
2023/01/29 07:26:15;;;;;;;0.90;0.90;;;15.30;63.00;;;;;;5068254;28;43483;-74
2023/01/29 07:28:43;;;;;;;1.00;1.00;;;15.30;63.10;;;;;;5068984;28;44120;-75
2023/01/29 07:31:13;;;;;;;1.10;1.10;;;15.30;63.10;;;;;;5068775;28;44862;-75
2023/01/29 07:33:43;;;;;;;1.20;1.20;;;15.20;63.00;;;;;;5071588;28;43979;-74
2023/01/29 07:36:11;;;;;;;0.97;0.97;;;15.20;63.10;;;;;;5070317;28;43384;-75
2023/01/29 07:38:39;;;;;;;1.10;1.10;;;15.20;63.10;;;;;;5068874;28;43946;-75
2023/01/29 07:41:07;;;;;;;1.30;1.30;;;15.20;63.40;;;;;;5067194;28;45141;-76
2023/01/29 07:43:35;;;;;;;1.80;1.80;;;15.30;63.50;;;;;;5067734;28;43431;-76
2023/01/29 07:46:03;;;;;;;3.33;3.13;;;15.40;63.20;;;;;;5068096;28;43575;-76
2023/01/29 07:48:32;;;;;;;5.73;5.33;;;15.50;62.80;;;;;;5068782;28;43839;-76
2023/01/29 07:51:00;;;;;;;10.07;9.17;;;15.50;62.30;;;;;;5063633;28;43466;-75
2023/01/29 07:53:28;;;;;;;14.47;12.97;;;15.50;62.30;;;;;;5064449;28;43413;-76
2023/01/29 07:55:56;;;;;;;14.50;12.90;;;15.50;62.50;;;;;;5077359;28;43652;-74
2023/01/29 07:58:24;;;;;;;13.43;12.00;;;15.40;62.60;;;;;;5068478;28;43922;-75
2023/01/29 08:00:52;;;;;;;16.13;14.43;;;15.40;63.10;;;;;;5063942;28;43384;-76
2023/01/29 08:03:20;;;;;;;20.93;17.50;;;15.40;62.70;;;;;;5063878;28;43486;-76
2023/01/29 08:05:49;;;;;;;26.57;22.93;;;15.40;62.70;;;;;;5065706;28;44032;-75
2023/01/29 08:08:18;;;;;;;37.73;29.27;;;15.40;62.80;;;;;;5063712;28;45803;-74
2023/01/29 08:10:46;;;;;;;39.67;32.10;;;15.30;62.80;;;;;;5067889;28;44027;-74
2023/01/29 08:13:14;;;;;;;42.47;37.03;;;15.30;62.90;;;;;;5068329;28;43482;-76
2023/01/29 08:15:43;;;;;;;30.37;25.63;;;15.30;63.00;;;;;;5068809;28;43582;-76
2023/01/29 08:18:11;;;;;;;35.37;28.53;;;15.30;63.40;;;;;;5067361;28;45631;-75
2023/01/29 08:20:39;;;;;;;41.13;35.27;;;15.30;63.20;;;;;;5068131;28;44047;-74
2023/01/29 08:23:11;;;;;;;49.10;41.27;;;15.30;63.00;;;;;;5067155;28;43479;-75
2023/01/29 08:25:39;;;;;;;47.33;38.93;;;15.30;63.00;;;;;;5060848;28;43577;-75
2023/01/29 08:28:08;;;;;;;46.40;39.10;;;15.30;63.10;;;;;;5065944;28;45922;-75
2023/01/29 08:30:37;;;;;;;44.93;37.50;;;15.30;63.10;;;;;;5070624;28;43406;-73
2023/01/29 08:33:05;;;;;;;41.53;34.80;;;15.20;63.00;;;;;;5067838;28;43480;-74
2023/01/29 08:35:33;;;;;;;37.87;32.90;;;15.20;63.10;;;;;;5065583;28;43537;-76
2023/01/29 08:38:02;;;;;;;41.97;34.23;;;15.20;63.50;;;;;;5064815;28;43926;-76
2023/01/29 08:40:32;;;;;;;41.87;34.73;;;15.30;63.60;;;;;;5068102;28;43487;-76
2023/01/29 08:43:00;;;;;;;41.17;36.10;;;15.40;63.00;;;;;;5066416;28;43335;-76
2023/01/29 08:45:30;;;;;;;45.47;36.73;;;15.50;62.60;;;;;;5067705;28;43479;-75
2023/01/29 08:47:58;;;;;;;42.33;37.00;;;15.50;62.30;;;;;;5064842;28;43583;-75
2023/01/29 08:50:26;;;;;;;47.23;41.03;;;15.50;62.40;;;;;;5066320;28;44681;-76
2023/01/29 08:52:57;;;;;;;44.40;37.77;;;15.40;62.40;;;;;;5066333;28;43416;-75
2023/01/29 08:55:25;;;;;;;46.50;37.90;;;15.40;62.80;;;;;;5066987;28;43577;-72
2023/01/29 08:57:56;;;;;;;43.90;38.67;;;15.40;62.90;;;;;;5068064;28;43665;-77
2023/01/29 09:00:24;;;;;;;45.43;38.13;;;15.40;62.50;;;;;;5066812;28;44548;-74
2023/01/29 09:02:52;;;;;;;51.60;41.47;;;15.40;62.60;;;;;;5068765;28;44036;-76
2023/01/29 09:05:20;;;;;;;50.50;42.47;;;15.30;62.60;;;;;;5066829;28;43593;-74
2023/01/29 09:07:48;;;;;;;48.30;40.90;;;15.30;62.70;;;;;;5067635;28;43611;-75
2023/01/29 09:10:17;;;;;;;47.43;41.00;;;15.30;62.80;;;;;;5067497;28;43633;-74
2023/01/29 09:12:44;;;;;;;43.63;38.40;;;15.30;62.80;;;;;;5066985;28;43403;-77
2023/01/29 09:15:14;;;;;;;43.73;38.43;;;15.30;63.20;;;;;;5065525;28;43519;-76
2023/01/29 09:17:42;;;;;;;47.27;40.10;;;15.20;62.80;;;;;;5067231;28;43860;-75
2023/01/29 09:20:11;;;;;;;47.60;41.07;;;15.30;62.80;;;;;;5066037;28;44718;-75
2023/01/29 09:22:39;;;;;;;48.13;41.27;;;15.30;63.00;;;;;;5082477;28;43420;-74
2023/01/29 09:25:08;;;;;;;47.27;40.47;;;15.20;62.90;;;;;;5067461;28;43439;-74
2023/01/29 09:27:36;;;;;;;49.03;41.93;;;15.20;62.80;;;;;;5072759;28;43684;-77
2023/01/29 09:30:04;;;;;;;49.47;40.73;;;15.20;62.90;;;;;;5067348;28;43362;-76
2023/01/29 09:32:34;;;;;;;46.20;40.17;;;15.20;62.90;;;;;;5065998;28;43495;-75
2023/01/29 09:35:20;;;;;;;46.43;40.63;;;15.20;62.90;;;;;;5059963;28;44350;-76
2023/01/29 09:37:48;;;;;;;47.37;39.83;;;15.20;63.00;;;;;;5064995;28;43984;-75
2023/01/29 09:40:21;;;;;;;44.50;39.53;;;15.20;63.00;;;;;;5062765;28;43370;-74
2023/01/29 09:42:51;;;;;;;47.83;39.37;;;15.20;63.10;;;;;;5061741;28;44069;-76
2023/01/29 09:45:23;;;;;;;44.33;38.43;;;15.20;63.10;;;;;;5061413;28;44275;-76
2023/01/29 09:47:52;;;;;;;43.33;37.97;;;15.20;63.20;;;;;;5081241;28;45251;-76
2023/01/29 09:50:22;;;;;;;45.03;38.87;;;15.20;63.20;;;;;;5061096;28;43406;-75
2023/01/29 09:52:51;;;;;;;42.50;37.77;;;15.20;63.50;;;;;;5080274;28;43908;-76
2023/01/29 09:55:22;;;;;;;43.70;38.47;;;15.30;63.50;;;;;;5067800;28;43464;-75
2023/01/29 09:57:50;;;;;;;44.13;37.83;;;15.40;63.30;;;;;;5067233;28;43810;-76
2023/01/29 10:00:22;;;;;;;41.50;36.07;;;15.60;62.90;;;;;;5066793;28;43457;-74
2023/01/29 10:03:04;;;;;;;43.07;36.43;;;15.70;62.40;;;;;;5067104;28;43435;-77
2023/01/29 10:05:44;;;;;;;41.90;36.53;;;15.90;62.00;;;;;;5065844;28;43589;-76
2023/01/29 10:08:41;;;;;;;42.30;33.67;;;16.10;61.60;;;;;;5064369;28;43947;-76
2023/01/29 10:11:13;;;;;;;38.53;33.83;;;16.30;61.10;;;;;;5063749;28;43431;-75
2023/01/29 10:13:45;;;;;;;38.57;33.40;;;16.40;61.50;;;;;;5064914;28;43338;-75
2023/01/29 10:16:20;;;;;;;37.43;33.43;;;16.50;60.50;;;;;;5066726;28;44064;-76
2023/01/29 10:19:07;;;;;;;35.47;31.67;;;16.50;60.20;;;;;;5066297;28;43990;-76
2023/01/29 10:21:49;;;;;;;36.67;31.10;;;16.50;60.00;;;;;;5057087;28;43382;-75
2023/01/29 10:24:22;;;;;;;36.17;31.67;;;16.50;60.10;;;;;;5062894;28;43496;-75
2023/01/29 10:26:50;;;;;;;34.20;30.53;;;16.40;60.10;;;;;;5063567;28;44018;-77
2023/01/29 10:29:19;;;;;;;34.17;29.30;;;16.20;60.20;;;;;;5066510;28;43832;-75
2023/01/29 10:31:48;;;;;;;30.83;27.47;;;16.10;60.60;;;;;;5066086;28;43397;-74
2023/01/29 10:34:23;;;;;;;31.70;28.03;;;16.00;61.10;;;;;;5066266;28;43378;-75
2023/01/29 10:36:51;;;;;;;31.37;27.60;;;15.90;62.00;;;;;;5066930;28;43435;-75
2023/01/29 10:39:19;;;;;;;29.27;26.27;;;15.80;61.90;;;;;;5066296;28;43669;-74
2023/01/29 10:42:02;;;;;;;30.27;26.70;;;15.80;61.90;;;;;;5064418;28;43478;-76
2023/01/29 10:44:37;;;;;;;28.67;25.60;;;15.70;62.00;;;;;;5064226;28;43414;-74
2023/01/29 10:47:27;;;;;;;28.33;25.33;;;15.60;62.10;;;;;;5064411;28;43493;-75
2023/01/29 10:50:18;;;;;;;28.23;25.23;;;15.60;62.40;;;;;;5078773;28;45600;-74
2023/01/29 10:52:58;;;;;;;27.30;24.50;;;15.50;62.80;;;;;;5060557;28;44853;-74
2023/01/29 10:55:34;;;;;;;25.30;22.70;;;15.50;62.90;;;;;;5064822;28;43489;-75
2023/01/29 10:58:06;;;;;;;24.27;21.77;;;15.50;62.80;;;;;;5063214;28;43864;-72
2023/01/29 11:00:35;;;;;;;24.60;22.00;;;15.50;62.70;;;;;;5065546;28;43934;-75
2023/01/29 11:03:13;;;;;;;23.77;21.23;;;15.40;62.80;;;;;;5065949;28;43431;-75
2023/01/29 11:05:59;;;;;;;23.87;21.40;;;15.40;62.90;;;;;;5079108;28;43483;-75
2023/01/29 11:08:28;;;;;;;23.67;20.93;;;15.40;63.00;;;;;;5065112;28;43866;-76
2023/01/29 11:11:01;;;;;;;51.60;22.97;;;15.40;63.40;;;;;;5065453;28;43838;-76
2023/01/29 11:13:32;;;;;;;34.53;21.80;;;15.40;63.20;;;;;;5065710;28;43534;-76
2023/01/29 11:16:00;;;;;;;35.70;21.77;;;15.50;63.00;;;;;;5065107;28;43521;-75
2023/01/29 11:18:28;;;;;;;31.80;21.57;;;15.70;62.80;;;;;;5061212;28;43592;-72
2023/01/29 11:21:02;;;;;;;29.73;20.37;;;15.70;62.30;;;;;;5065727;28;45280;-74
2023/01/29 11:23:31;;;;;;;21.40;18.77;;;15.70;62.20;;;;;;5065443;28;43494;-77
2023/01/29 11:25:59;;;;;;;27.10;20.03;;;15.60;62.10;;;;;;5064710;28;43632;-75
2023/01/29 11:28:38;;;;;;;23.13;18.00;;;15.60;62.70;;;;;;5066119;28;43364;-76
2023/01/29 11:31:16;;;;;;;21.77;18.77;;;15.60;62.60;;;;;;5065180;28;44095;-75
2023/01/29 11:33:44;;;;;;;21.30;18.23;;;15.60;62.60;;;;;;5060048;28;43309;-73
2023/01/29 11:36:22;;;;;;;19.87;17.83;;;15.50;62.50;;;;;;5064801;28;43425;-74
2023/01/29 11:39:18;;;;;;;20.80;16.83;;;15.50;62.70;;;;;;5062372;28;43438;-74
2023/01/29 11:41:52;;;;;;;18.63;16.53;;;15.50;62.90;;;;;;5062997;28;43885;-75
2023/01/29 11:44:22;;;;;;;22.27;17.57;;;15.40;62.90;;;;;;5065560;28;43466;-76
2023/01/29 11:46:49;;;;;;;17.63;15.80;;;15.40;63.30;;;;;;5065412;28;44331;-76
2023/01/29 11:49:30;;;;;;;20.03;16.37;;;15.40;62.90;;;;;;5066006;28;43417;-75
2023/01/29 11:52:01;;;;;;;17.40;15.70;;;15.40;62.90;;;;;;5062661;28;43918;-75
2023/01/29 11:54:31;;;;;;;16.23;14.60;;;15.40;63.00;;;;;;5064913;28;43575;-74
2023/01/29 11:56:59;;;;;;;16.80;15.20;;;15.40;63.10;;;;;;5066782;28;43347;-74
2023/01/29 11:59:41;;;;;;;17.90;16.07;;;15.40;63.20;;;;;;5068809;28;43386;-77
2023/01/29 12:02:26;;;;;;;17.73;15.77;;;15.30;63.20;;;;;;5068570;28;43926;-74
2023/01/29 12:04:54;;;;;;;16.73;14.67;;;15.40;63.60;;;;;;5067691;28;43709;-73
2023/01/29 12:07:24;;;;;;;15.30;13.77;;;15.50;63.50;;;;;;5067757;28;44052;-71
2023/01/29 12:09:53;;;;;;;14.93;13.47;;;15.50;63.00;;;;;;5068091;28;43514;-75
2023/01/29 12:12:28;;;;;;;14.80;13.30;;;15.50;62.70;;;;;;5068029;28;43882;-75
2023/01/29 12:15:18;;;;;;;14.27;12.97;;;15.50;62.60;;;;;;5069577;28;43425;-74
2023/01/29 12:17:53;;;;;;;15.13;13.73;;;15.50;62.80;;;;;;5078596;28;43503;-75
2023/01/29 12:20:25;;;;;;;13.77;12.47;;;15.50;63.00;;;;;;5066338;28;43457;-75
2023/01/29 12:22:58;;;;;;;15.07;12.67;;;15.50;63.10;;;;;;5067995;28;44023;-76
2023/01/29 12:25:35;;;;;;;13.50;12.20;;;15.50;63.20;;;;;;5068096;28;43366;-76
2023/01/29 12:28:06;;;;;;;14.20;12.80;;;15.50;63.20;;;;;;5068247;28;43466;-76
2023/01/29 12:30:38;;;;;;;12.27;11.10;;;15.50;63.20;;;;;;5060957;28;43482;-74
2023/01/29 12:33:10;;;;;;;13.63;12.00;;;15.50;63.20;;;;;;5070488;28;45603;-74
2023/01/29 12:35:41;;;;;;;12.83;11.53;;;15.40;63.20;;;;;;5062238;28;43482;-75
2023/01/29 12:38:14;;;;;;;12.33;11.10;;;15.40;63.30;;;;;;5076093;28;44055;-77
2023/01/29 12:40:44;;;;;;;13.90;11.67;;;15.40;63.20;;;;;;5068446;28;43493;-76
2023/01/29 12:43:15;;;;;;;12.30;10.87;;;15.40;63.20;;;;;;5068038;28;43930;-75
2023/01/29 12:45:43;;;;;;;11.50;10.40;;;15.40;63.10;;;;;;5065767;28;43976;-74
2023/01/29 12:48:13;;;;;;;11.40;10.20;;;15.40;63.20;;;;;;5067748;28;43393;-73
2023/01/29 12:50:41;;;;;;;11.67;10.67;;;15.40;63.20;;;;;;5065576;28;43593;-76
2023/01/29 12:53:19;;;;;;;12.57;11.27;;;15.40;63.30;;;;;;5067819;28;43887;-75
2023/01/29 12:55:48;;;;;;;11.90;10.40;;;15.40;63.40;;;;;;5067924;28;43454;-76
2023/01/29 12:58:16;;;;;;;11.77;10.67;;;15.40;63.60;;;;;;5065975;28;43381;-75
2023/01/29 13:00:45;;;;;;;10.80;9.80;;;15.50;63.50;;;;;;5068128;28;43470;-75
2023/01/29 13:03:17;;;;;;;10.03;9.07;;;15.60;63.00;;;;;;5071534;28;45322;-74
2023/01/29 13:05:47;;;;;;;10.90;9.90;;;15.70;62.70;;;;;;5064905;28;45090;-75
2023/01/29 13:08:17;;;;;;;9.80;8.90;;;15.70;62.50;;;;;;5061632;28;43929;-75
2023/01/29 13:10:48;;;;;;;9.60;8.70;;;15.60;62.40;;;;;;5068089;28;43474;-75
2023/01/29 13:13:21;;;;;;;9.47;8.67;;;15.60;62.50;;;;;;5067072;28;43615;-76
2023/01/29 13:15:49;;;;;;;9.33;8.63;;;15.50;63.60;;;;;;5061599;28;43401;-74
2023/01/29 13:18:28;;;;;;;9.70;8.90;;;15.50;62.80;;;;;;5077772;28;43991;-74
2023/01/29 13:20:56;;;;;;;9.63;8.83;;;15.50;62.80;;;;;;5066972;28;43401;-76
2023/01/29 13:23:28;;;;;;;8.80;8.10;;;15.50;62.90;;;;;;5060659;28;45699;-74
2023/01/29 13:25:56;;;;;;;9.07;8.27;;;15.50;63.00;;;;;;5067130;28;43422;-72